Map

Track Data

SID SEASON NUMBER BASIN SUBBASIN NAME ISO_TIME NATURE LAT LON WMO_WIND WMO_PRES WMO_AGENCY TRACK_TYPE DIST2LAND LANDFALL IFLAG USA_AGENCY USA_ATCF_ID USA_LAT USA_LON USA_RECORD USA_STATUS USA_WIND USA_PRES USA_SSHS USA_R34_NE USA_R34_SE USA_R34_SW USA_R34_NW USA_R50_NE USA_R50_SE USA_R50_SW USA_R50_NW USA_R64_NE USA_R64_SE USA_R64_SW USA_R64_NW USA_POCI USA_ROCI USA_RMW USA_EYE TOKYO_LAT TOKYO_LON TOKYO_GRADE TOKYO_WIND TOKYO_PRES TOKYO_R50_DIR TOKYO_R50_LONG TOKYO_R50_SHORT TOKYO_R30_DIR TOKYO_R30_LONG TOKYO_R30_SHORT TOKYO_LAND CMA_LAT CMA_LON CMA_CAT CMA_WIND CMA_PRES HKO_LAT HKO_LON HKO_CAT HKO_WIND HKO_PRES NEWDELHI_LAT NEWDELHI_LON NEWDELHI_GRADE NEWDELHI_WIND NEWDELHI_PRES NEWDELHI_CI NEWDELHI_DP NEWDELHI_POCI REUNION_LAT REUNION_LON REUNION_TYPE REUNION_WIND REUNION_PRES REUNION_TNUM REUNION_CI REUNION_RMW REUNION_R34_NE REUNION_R34_SE REUNION_R34_SW REUNION_R34_NW REUNION_R50_NE REUNION_R50_SE REUNION_R50_SW REUNION_R50_NW REUNION_R64_NE REUNION_R64_SE REUNION_R64_SW REUNION_R64_NW BOM_LAT BOM_LON BOM_TYPE BOM_WIND BOM_PRES BOM_TNUM BOM_CI BOM_RMW BOM_R34_NE BOM_R34_SE BOM_R34_SW BOM_R34_NW BOM_R50_NE BOM_R50_SE BOM_R50_SW BOM_R50_NW BOM_R64_NE BOM_R64_SE BOM_R64_SW BOM_R64_NW BOM_ROCI BOM_POCI BOM_EYE BOM_POS_METHOD BOM_PRES_METHOD NADI_LAT NADI_LON NADI_CAT NADI_WIND NADI_PRES WELLINGTON_LAT WELLINGTON_LON WELLINGTON_WIND WELLINGTON_PRES DS824_LAT DS824_LON DS824_STAGE DS824_WIND DS824_PRES TD9636_LAT TD9636_LON TD9636_STAGE TD9636_WIND TD9636_PRES TD9635_LAT TD9635_LON TD9635_WIND TD9635_PRES TD9635_ROCI NEUMANN_LAT NEUMANN_LON NEUMANN_CLASS NEUMANN_WIND NEUMANN_PRES MLC_LAT MLC_LON MLC_CLASS MLC_WIND MLC_PRES USA_GUST BOM_GUST BOM_GUST_PER REUNION_GUST REUNION_GUST_PER USA_SEAHGT USA_SEARAD_NE USA_SEARAD_SE USA_SEARAD_SW USA_SEARAD_NW STORM_SPEED STORM_DIR
1919219N19124 1919 23 WP MM NOT_NAMED 1919-08-06 22:00:00 NR 19.1000 123.700 main 166 148 __________O___ -1 19.1000 123.700 7 6 284
1919219N19124 1919 23 WP MM NOT_NAMED 1919-08-07 00:00:00 NR 19.1438 123.507 main 148 130 __________P___ -1 19.1438 123.507 7 6 284
1919219N19124 1919 23 WP MM NOT_NAMED 1919-08-07 03:00:00 NR 19.2116 123.221 main 130 118 __________P___ -1 19.2116 123.221 7 6 285
1919219N19124 1919 23 WP MM NOT_NAMED 1919-08-07 06:00:00 NR 19.2855 122.944 main 118 109 __________P___ -1 19.2855 122.944 7 5 287
1919219N19124 1919 23 WP MM NOT_NAMED 1919-08-07 09:00:00 NR 19.3692 122.683 main 119 116 __________P___ -1 19.3692 122.683 7 5 290
1919219N19124 1919 23 WP MM NOT_NAMED 1919-08-07 10:00:00 NR 19.4000 122.600 main 116 113 __________O___ -1 19.4000 122.600 7 5 293
1919219N19124 1919 23 WP MM NOT_NAMED 1919-08-07 12:00:00 NR 19.4666 122.442 main 123 123 __________P___ -1 19.4666 122.442 7 5 297
1919219N19124 1919 23 WP MM NOT_NAMED 1919-08-07 15:00:00 NR 19.5791 122.230 main 134 134 __________P___ -1 19.5791 122.230 7 4 303
1919219N19124 1919 23 WP MM NOT_NAMED 1919-08-07 18:00:00 NR 19.7066 122.056 main 145 145 __________P___ -1 19.7066 122.056 7 4 314
1919219N19124 1919 23 WP MM NOT_NAMED 1919-08-07 21:00:00 NR 19.8492 121.930 main 154 165 __________P___ -1 19.8492 121.930 7 4 322
1919219N19124 1919 23 WP MM NOT_NAMED 1919-08-07 22:00:00 NR 19.9000 121.900 main 165 165 __________O___ -1 19.9000 121.900 3 3 333
1919219N19124 1919 23 WP MM NOT_NAMED 1919-08-08 00:00:00 NR 20.0025 121.849 main 172 172 __________P___ -1 20.0025 121.849 3 3 344
1919219N19124 1919 23 WP MM NOT_NAMED 1919-08-08 03:00:00 NR 20.1690 121.818 main 194 194 __________P___ -1 20.1690 121.818 3 3 0
1919219N19124 1919 23 WP MM NOT_NAMED 1919-08-08 06:00:00 NR 20.3478 121.830 main 201 187 __________P___ -1 20.3478 121.830 3 4 9
1919219N19124 1919 23 WP MM NOT_NAMED 1919-08-08 09:00:00 NR 20.5358 121.878 main 187 178 __________P___ -1 20.5358 121.878 3 4 16
1919219N19124 1919 23 WP MM NOT_NAMED 1919-08-08 10:00:00 NR 20.6000 121.900 main 178 169 __________O___ -1 20.6000 121.900 4 4 22
1919219N19124 1919 23 WP MM NOT_NAMED 1919-08-08 12:00:00 NR 20.7303 121.959 main 176 159 __________P___ -1 20.7303 121.959 4 4 26
1919219N19124 1919 23 WP MM NOT_NAMED 1919-08-08 15:00:00 NR 20.9321 122.074 main 167 152 __________P___ -1 20.9321 122.074 4 5 28
1919219N19124 1919 23 WP MM NOT_NAMED 1919-08-08 18:00:00 NR 21.1359 122.192 main 161 155 __________P___ -1 21.1359 122.192 4 4 26
1919219N19124 1919 23 WP MM NOT_NAMED 1919-08-08 21:00:00 NR 21.3355 122.282 main 159 155 __________P___ -1 21.3355 122.282 4 4 21
1919219N19124 1919 23 WP MM NOT_NAMED 1919-08-08 22:00:00 NR 21.4000 122.300 main 155 151 __________O___ -1 21.4000 122.300 4 4 14
1919219N19124 1919 23 WP MM NOT_NAMED 1919-08-09 00:00:00 NR 21.5275 122.317 main 151 146 __________P___ -1 21.5275 122.317 4 4 0
1919219N19124 1919 23 WP MM NOT_NAMED 1919-08-09 03:00:00 NR 21.7127 122.304 main 146 134 __________P___ -1 21.7127 122.304 4 4 349
1919219N19124 1919 23 WP MM NOT_NAMED 1919-08-09 06:00:00 NR 21.8877 122.247 main 134 123 __________P___ -1 21.8877 122.247 4 4 337
1919219N19124 1919 23 WP MM NOT_NAMED 1919-08-09 09:00:00 NR 22.0495 122.144 main 123 123 __________P___ -1 22.0495 122.144 4 4 327
1919219N19124 1919 23 WP MM NOT_NAMED 1919-08-09 10:00:00 NR 22.1000 122.100 main 123 121 __________O___ -1 22.1000 122.100 4 3 328
1919219N19124 1919 23 WP MM NOT_NAMED 1919-08-09 12:00:00 NR 22.1915 122.050 main 121 98 __________P___ -1 22.1915 122.050 4 3 325
1919219N19124 1919 23 WP MM NOT_NAMED 1919-08-09 15:00:00 NR 22.3160 121.939 main 98 75 __________P___ -1 22.3160 121.939 4 4 311
1919219N19124 1919 23 WP MM NOT_NAMED 1919-08-09 18:00:00 NR 22.4345 121.748 main 75 38 __________P___ -1 22.4345 121.748 4 5 297
1919219N19124 1919 23 WP MM NOT_NAMED 1919-08-09 21:00:00 NR 22.5567 121.437 main 38 30 __________P___ -1 22.5567 121.437 4 7 292
1919219N19124 1919 23 WP MM NOT_NAMED 1919-08-09 22:00:00 NR 22.6000 121.300 main 30 0 __________O___ -1 22.6000 121.300 4 9 288
1919219N19124 1919 23 WP MM NOT_NAMED 1919-08-10 00:00:00 NR 22.7001 120.967 main 0 0 __________P___ -1 22.7001 120.967 4 11 286
1919219N19124 1919 23 WP MM NOT_NAMED 1919-08-10 03:00:00 NR 22.8563 120.347 main 0 0 __________P___ -1 22.8563 120.347 4 13 284
1919219N19124 1919 23 WP MM NOT_NAMED 1919-08-10 06:00:00 NR 23.0111 119.627 main 52 52 __________P___ -1 23.0111 119.627 4 14 282
1919219N19124 1919 23 WP MM NOT_NAMED 1919-08-10 09:00:00 NR 23.1556 118.859 main 122 112 __________P___ -1 23.1556 118.859 4 14 281
1919219N19124 1919 23 WP MM NOT_NAMED 1919-08-10 10:00:00 NR 23.2000 118.600 main 112 67 __________O___ -1 23.2000 118.600 4 14 280
1919219N19124 1919 23 WP MM NOT_NAMED 1919-08-10 12:00:00 NR 23.2822 118.088 main 67 23 __________P___ -1 23.2822 118.088 4 14 279
1919219N19124 1919 23 WP MM NOT_NAMED 1919-08-10 15:00:00 NR 23.3910 117.332 main 23 0 __________P___ -1 23.3910 117.332 4 14 278
1919219N19124 1919 23 WP MM NOT_NAMED 1919-08-10 18:00:00 NR 23.4864 116.587 main 0 0 __________P___ -1 23.4864 116.587 4 14 278
1919219N19124 1919 23 WP MM NOT_NAMED 1919-08-10 21:00:00 NR 23.5726 115.846 main 0 0 __________P___ -1 23.5726 115.846 4 14 277
1919219N19124 1919 23 WP MM NOT_NAMED 1919-08-10 22:00:00 NR 23.6000 115.600 main 0 __________O___ -1 23.6000 115.600 7 14 277

Digital Typhoon Data and Search

About IBTrACS Database

This database is a web-friendly format of International Best Track Archive for Climate Stewardship (IBTrACS), a global best track data archive curated by NOAA dating back to 1842.

Updated: 2021-10-08